DAUG/GHA METAR and TAF weather

Enter ICAO airport designator
Station Type Date Time Source
DAUG METAR 2019/05/21 20:00 UTC NOAA

DAUG 212000Z 16007KT CAVOK 23/11 Q1015


Station Type Date Time Source
DAUG Decoded METAR 2019/05/21 20:00 UTC NOAA

Ghardaia, Algeria (DAUG) 32-23N 003-49E 450M
May 21, 2019 - 04:00 PM EDT / 2019.05.21 2000 UTC
Wind: from the SSE (160 degrees) at 8 MPH (7 KT):0
Visibility: greater than 7 mile(s):0
Temperature: 73 F (23 C)
Dew Point: 51 F (11 C)
Relative Humidity: 46%
Pressure (altimeter): 29.97 in. Hg (1015 hPa)
ob: DAUG 212000Z 16007KT CAVOK 23/11 Q1015
cycle: 20

Station Type Date Time Source
DAUG TAF 2019/05/21 18:33 UTC NOAA

TAF DAUG 211700Z 2118/2218 15012KT 8000 SCT040 SCT100 PROB30
TEMPO 2118/2122 5000 HZ FEW040TCU
BECMG 2122/2201 VRB02KT
BECMG 2212/2215 29010KT

Example: see airport list